createdAt,value
2018-08-18T00:01:27.219Z,2.10
2018-08-18T00:03:55.560Z,1.97
2018-08-18T00:06:23.023Z,1.80
2018-08-18T00:08:50.587Z,1.80
2018-08-18T00:11:18.072Z,1.57
2018-08-18T00:13:45.516Z,1.70
2018-08-18T00:16:12.980Z,2.10
2018-08-18T00:18:40.447Z,2.23
2018-08-18T00:21:07.904Z,1.90
2018-08-18T00:23:35.468Z,1.80
2018-08-18T00:26:02.929Z,1.90
2018-08-18T00:28:30.392Z,1.83
2018-08-18T00:30:57.847Z,1.80
2018-08-18T00:33:25.310Z,1.97
2018-08-18T00:35:52.768Z,2.10
2018-08-18T00:38:20.240Z,1.67
2018-08-18T00:40:47.693Z,1.80
2018-08-18T00:43:15.152Z,2.07
2018-08-18T00:45:42.738Z,2.30
2018-08-18T00:48:10.187Z,1.93
2018-08-18T00:50:37.638Z,2.00
2018-08-18T00:53:05.115Z,1.80
2018-08-18T00:55:32.571Z,2.00
2018-08-18T00:58:00.132Z,1.77
2018-08-18T01:00:27.603Z,1.87
2018-08-18T01:02:55.077Z,2.00
2018-08-18T01:05:22.544Z,1.97
2018-08-18T01:07:51.520Z,1.60
2018-08-18T01:10:18.986Z,2.33
2018-08-18T01:12:46.579Z,2.33
2018-08-18T01:15:14.009Z,1.90
2018-08-18T01:17:41.471Z,1.70
2018-08-18T01:20:09.023Z,2.13
2018-08-18T01:22:36.486Z,1.83
2018-08-18T01:25:03.944Z,1.83
2018-08-18T01:27:31.403Z,2.30
2018-08-18T01:29:58.859Z,2.23
2018-08-18T01:32:26.355Z,1.90
2018-08-18T01:34:53.918Z,2.00
2018-08-18T01:37:21.365Z,1.63
2018-08-18T01:39:48.820Z,1.60
2018-08-18T01:42:16.268Z,2.17
2018-08-18T01:44:43.736Z,1.60
2018-08-18T01:47:11.195Z,1.53
2018-08-18T01:49:38.652Z,2.03
2018-08-18T01:52:06.112Z,2.13
2018-08-18T01:54:33.569Z,1.80
2018-08-18T01:57:01.028Z,1.80
2018-08-18T01:59:28.487Z,1.87
2018-08-18T02:01:55.971Z,1.77
2018-08-18T02:04:23.422Z,1.70
2018-08-18T02:06:50.882Z,1.90
2018-08-18T02:09:18.345Z,1.70
2018-08-18T02:11:45.800Z,2.00
2018-08-18T02:14:13.265Z,1.90
2018-08-18T02:16:40.723Z,1.60
2018-08-18T02:19:08.224Z,1.93
2018-08-18T02:21:35.674Z,1.90
2018-08-18T02:24:03.134Z,2.30
2018-08-18T02:26:30.576Z,1.83
2018-08-18T02:28:58.032Z,1.80
2018-08-18T02:31:25.491Z,1.43
2018-08-18T02:33:52.953Z,1.97
2018-08-18T02:36:20.416Z,2.23
2018-08-18T02:38:47.867Z,1.60
2018-08-18T02:41:15.391Z,2.33
2018-08-18T02:43:42.793Z,1.87
2018-08-18T02:46:10.263Z,1.80
2018-08-18T02:48:37.763Z,3.03
2018-08-18T02:51:05.227Z,2.07
2018-08-18T02:53:32.687Z,2.43
2018-08-18T02:56:00.260Z,1.80
2018-08-18T02:58:27.735Z,2.23
2018-08-18T03:00:55.195Z,1.93
2018-08-18T03:03:22.656Z,1.77
2018-08-18T03:05:50.116Z,2.00
2018-08-18T03:08:17.578Z,1.73
2018-08-18T03:10:45.019Z,2.20
2018-08-18T03:13:12.588Z,2.00
2018-08-18T03:15:40.047Z,2.43
2018-08-18T03:18:07.621Z,2.23
2018-08-18T03:20:35.187Z,2.40
2018-08-18T03:23:02.747Z,1.90
2018-08-18T03:25:30.307Z,1.77
2018-08-18T03:27:57.881Z,2.70
2018-08-18T03:30:26.848Z,1.80
2018-08-18T03:32:54.301Z,2.43
2018-08-18T03:35:21.756Z,1.77
2018-08-18T03:37:49.206Z,2.30
2018-08-18T03:40:16.718Z,1.80
2018-08-18T03:42:44.172Z,1.97
2018-08-18T03:45:11.635Z,2.63
2018-08-18T03:47:39.125Z,2.10
2018-08-18T03:50:06.680Z,1.83
2018-08-18T03:52:34.266Z,1.90
2018-08-18T03:55:01.695Z,2.37
2018-08-18T03:57:29.148Z,2.90
2018-08-18T03:59:56.599Z,2.57
2018-08-18T04:02:24.070Z,2.23
2018-08-18T04:04:51.523Z,2.27
2018-08-18T04:07:18.984Z,2.80
2018-08-18T04:09:46.463Z,2.17
2018-08-18T04:12:13.932Z,2.30
2018-08-18T04:14:41.388Z,2.10
2018-08-18T04:17:08.851Z,2.20
2018-08-18T04:19:36.419Z,2.10
2018-08-18T04:22:03.868Z,2.37
2018-08-18T04:24:31.339Z,2.10
2018-08-18T04:26:58.805Z,2.23
2018-08-18T04:29:26.272Z,2.30
2018-08-18T04:31:53.726Z,2.47
2018-08-18T04:34:21.175Z,2.63
2018-08-18T04:36:48.635Z,2.20
2018-08-18T04:39:16.117Z,2.23
2018-08-18T04:41:43.679Z,2.10
2018-08-18T04:44:11.131Z,2.03
2018-08-18T04:46:38.703Z,2.10
2018-08-18T04:49:06.158Z,1.77
2018-08-18T04:51:33.620Z,1.97
2018-08-18T04:54:01.068Z,1.80
2018-08-18T04:56:28.531Z,1.90
2018-08-18T04:58:55.979Z,2.37
2018-08-18T05:01:23.474Z,1.90
2018-08-18T05:03:50.930Z,2.60
2018-08-18T05:06:18.384Z,2.20
2018-08-18T05:08:45.871Z,2.60
2018-08-18T05:11:13.429Z,2.57
2018-08-18T05:13:40.993Z,1.97
2018-08-18T05:16:08.455Z,2.23
2018-08-18T05:18:35.911Z,1.97
2018-08-18T05:21:03.382Z,2.33
2018-08-18T05:23:30.844Z,2.73
2018-08-18T05:25:58.304Z,2.20
2018-08-18T05:28:25.760Z,2.03
2018-08-18T05:30:53.323Z,2.50
2018-08-18T05:33:20.895Z,2.40
2018-08-18T05:35:48.356Z,3.00
2018-08-18T05:38:15.828Z,2.77
2018-08-18T05:40:43.281Z,3.03
2018-08-18T05:43:10.748Z,2.80
2018-08-18T05:45:38.296Z,2.10
2018-08-18T05:48:05.872Z,2.17
2018-08-18T05:50:33.440Z,2.87
2018-08-18T05:53:00.995Z,2.70
2018-08-18T05:55:28.550Z,2.77
2018-08-18T05:57:56.004Z,2.43
2018-08-18T06:00:23.471Z,2.53
2018-08-18T06:02:50.948Z,3.07
2018-08-18T06:05:19.168Z,2.93
2018-08-18T06:07:47.513Z,3.20
2018-08-18T06:10:14.975Z,2.67
2018-08-18T06:12:42.444Z,2.70
2018-08-18T06:15:09.900Z,3.40
2018-08-18T06:17:37.457Z,3.70
2018-08-18T06:20:05.020Z,3.13
2018-08-18T06:22:32.472Z,2.50
2018-08-18T06:24:59.932Z,3.07
2018-08-18T06:27:27.394Z,2.63
2018-08-18T06:29:54.869Z,3.20
2018-08-18T06:32:22.315Z,3.33
2018-08-18T06:34:49.837Z,4.23
2018-08-18T06:37:17.240Z,2.80
2018-08-18T06:39:44.699Z,2.60
2018-08-18T06:42:12.172Z,3.10
2018-08-18T06:44:39.619Z,2.73
2018-08-18T06:47:07.087Z,3.47
2018-08-18T06:49:34.551Z,2.73
2018-08-18T06:52:02.001Z,2.93
2018-08-18T06:54:29.499Z,3.60
2018-08-18T06:56:56.944Z,3.27
2018-08-18T06:59:24.410Z,3.23
2018-08-18T07:01:51.870Z,3.07
2018-08-18T07:04:19.344Z,2.53
2018-08-18T07:06:46.799Z,3.47
2018-08-18T07:09:14.371Z,3.70
2018-08-18T07:11:41.924Z,3.43
2018-08-18T07:14:09.419Z,2.70
2018-08-18T07:16:36.955Z,4.10
2018-08-18T07:19:04.520Z,3.10
2018-08-18T07:21:32.307Z,4.20
2018-08-18T07:24:00.592Z,3.53
2018-08-18T07:26:28.825Z,4.00
2018-08-18T07:28:56.454Z,2.50
2018-08-18T07:31:23.872Z,4.13
2018-08-18T07:33:51.445Z,2.80
2018-08-18T07:36:19.675Z,3.57
2018-08-18T07:38:47.127Z,3.97
2018-08-18T07:41:14.583Z,4.20
2018-08-18T07:43:42.819Z,4.27
2018-08-18T07:46:10.282Z,4.00
2018-08-18T07:48:37.853Z,3.83
2018-08-18T07:51:05.299Z,3.13
2018-08-18T07:53:32.836Z,4.03
2018-08-18T07:56:01.000Z,4.33
2018-08-18T07:58:28.519Z,3.60
2018-08-18T08:00:56.079Z,3.97
2018-08-18T08:03:23.652Z,4.30
2018-08-18T08:05:51.656Z,3.27
2018-08-18T08:08:19.080Z,4.23
2018-08-18T08:10:46.554Z,3.93
2018-08-18T08:13:14.820Z,2.70
2018-08-18T08:15:42.290Z,3.67
2018-08-18T08:18:09.773Z,3.70
2018-08-18T08:20:37.205Z,3.53
2018-08-18T08:23:04.685Z,3.90
2018-08-18T08:25:32.136Z,3.50
2018-08-18T08:27:59.691Z,3.57
2018-08-18T08:30:27.151Z,2.63
2018-08-18T08:32:54.618Z,3.87
2018-08-18T08:35:22.184Z,3.47
2018-08-18T08:37:49.752Z,2.97
2018-08-18T08:40:17.211Z,2.87
2018-08-18T08:42:44.798Z,3.60
2018-08-18T08:45:12.245Z,2.57
2018-08-18T08:47:39.713Z,3.47
2018-08-18T08:50:07.176Z,3.73
2018-08-18T08:52:34.630Z,2.53
2018-08-18T08:55:02.087Z,2.57
2018-08-18T08:57:29.651Z,3.17
2018-08-18T08:59:57.121Z,2.47
2018-08-18T09:02:24.581Z,2.70
2018-08-18T09:04:52.144Z,2.70
2018-08-18T09:07:19.605Z,2.37
2018-08-18T09:09:47.150Z,1.93
2018-08-18T09:12:14.624Z,2.00
2018-08-18T09:14:42.085Z,2.43
2018-08-18T09:17:09.534Z,2.00
2018-08-18T09:19:36.998Z,1.83
2018-08-18T09:22:04.472Z,1.83
2018-08-18T09:24:31.930Z,1.63
2018-08-18T09:26:59.408Z,1.50
2018-08-18T09:29:26.858Z,1.50
2018-08-18T09:31:54.306Z,1.70
2018-08-18T09:34:21.765Z,2.00
2018-08-18T09:36:49.231Z,1.77
2018-08-18T09:39:16.677Z,2.00
2018-08-18T09:41:44.142Z,2.00
2018-08-18T09:44:11.583Z,1.73
2018-08-18T09:46:39.043Z,2.00
2018-08-18T09:49:06.512Z,1.80
2018-08-18T09:51:33.997Z,1.60
2018-08-18T09:54:02.191Z,1.90
2018-08-18T09:56:29.660Z,1.93
2018-08-18T09:58:57.216Z,1.90
2018-08-18T10:01:24.694Z,2.00
2018-08-18T10:03:52.152Z,2.27
2018-08-18T10:06:19.770Z,2.10
2018-08-18T10:08:47.180Z,2.00
2018-08-18T10:11:14.635Z,2.03
2018-08-18T10:13:42.211Z,1.83
2018-08-18T10:16:09.788Z,2.40
2018-08-18T10:18:37.244Z,2.33
2018-08-18T10:21:06.208Z,2.20
2018-08-18T10:23:33.671Z,2.17
2018-08-18T10:26:01.135Z,1.87
2018-08-18T10:28:28.601Z,1.73
2018-08-18T10:30:56.067Z,2.30
2018-08-18T10:33:23.702Z,1.83
2018-08-18T10:35:51.114Z,1.97
2018-08-18T10:38:18.584Z,2.03
2018-08-18T10:40:46.838Z,2.07
2018-08-18T10:43:14.298Z,2.10
2018-08-18T10:45:41.768Z,1.70
2018-08-18T10:48:09.246Z,1.93
2018-08-18T10:50:36.693Z,2.30
2018-08-18T10:53:04.270Z,1.90
2018-08-18T10:55:31.722Z,2.00
2018-08-18T10:57:59.279Z,1.93
2018-08-18T11:00:26.740Z,1.70
2018-08-18T11:02:54.202Z,1.77
2018-08-18T11:05:21.658Z,1.97
2018-08-18T11:07:49.133Z,1.60
2018-08-18T11:10:16.586Z,1.83
2018-08-18T11:12:44.053Z,1.60
2018-08-18T11:15:11.515Z,1.90
2018-08-18T11:17:38.987Z,1.77
2018-08-18T11:20:06.446Z,1.80
2018-08-18T11:22:43.735Z,2.07
2018-08-18T11:25:12.691Z,1.40
2018-08-18T11:27:40.190Z,1.70
2018-08-18T11:30:08.792Z,1.97
2018-08-18T11:32:36.248Z,1.80
2018-08-18T11:35:03.706Z,1.50
2018-08-18T11:37:31.171Z,1.60
2018-08-18T11:39:58.625Z,2.07
2018-08-18T11:42:26.199Z,1.80
2018-08-18T11:44:53.753Z,1.90
2018-08-18T11:47:21.318Z,1.80
2018-08-18T11:49:48.880Z,1.83
2018-08-18T11:52:16.336Z,1.60
2018-08-18T11:54:43.919Z,1.77
2018-08-18T11:57:11.383Z,1.47
2018-08-18T11:59:39.607Z,1.50
2018-08-18T12:02:07.161Z,1.30
2018-08-18T12:04:34.575Z,2.13
2018-08-18T12:07:02.131Z,1.50
2018-08-18T12:09:29.587Z,1.83
2018-08-18T12:11:57.043Z,1.70
2018-08-18T12:14:24.511Z,1.80
2018-08-18T12:16:51.988Z,1.47
2018-08-18T12:19:19.448Z,1.83
2018-08-18T12:21:47.013Z,2.00
2018-08-18T12:24:14.568Z,1.40
2018-08-18T12:26:42.019Z,1.67
2018-08-18T12:29:09.485Z,1.70
2018-08-18T12:31:36.965Z,1.70
2018-08-18T12:34:04.524Z,1.87
2018-08-18T12:36:32.163Z,1.70
2018-08-18T12:38:59.661Z,1.90
2018-08-18T12:41:27.221Z,1.80
2018-08-18T12:43:54.783Z,1.83
2018-08-18T12:46:22.359Z,2.20
2018-08-18T12:48:51.324Z,2.07
2018-08-18T12:51:18.804Z,2.17
2018-08-18T12:53:46.259Z,1.97
2018-08-18T12:56:13.741Z,1.77
2018-08-18T12:58:41.367Z,2.00
2018-08-18T13:01:08.663Z,1.90
2018-08-18T13:03:36.115Z,1.80
2018-08-18T13:06:03.585Z,2.00
2018-08-18T13:08:31.142Z,2.13
2018-08-18T13:10:58.605Z,2.00
2018-08-18T13:13:26.079Z,1.87
2018-08-18T13:15:53.532Z,1.53
2018-08-18T13:18:20.998Z,2.20
2018-08-18T13:20:48.667Z,1.73
2018-08-18T13:23:16.124Z,1.80
2018-08-18T13:25:43.687Z,1.97
2018-08-18T13:28:11.147Z,1.77
2018-08-18T13:30:39.601Z,1.67
2018-08-18T13:33:07.157Z,1.90
2018-08-18T13:35:34.556Z,2.03
2018-08-18T13:38:02.020Z,2.07
2018-08-18T13:40:29.573Z,1.77
2018-08-18T13:42:56.927Z,1.90
2018-08-18T13:45:24.396Z,1.90
2018-08-18T13:47:51.848Z,2.07
2018-08-18T13:50:19.308Z,1.93
2018-08-18T13:52:46.792Z,2.00
2018-08-18T13:55:14.247Z,1.87
2018-08-18T13:57:41.707Z,2.13
2018-08-18T14:00:09.175Z,2.40
2018-08-18T14:02:36.763Z,2.23
2018-08-18T14:05:05.008Z,2.00
2018-08-18T14:07:32.469Z,1.87
2018-08-18T14:09:59.924Z,2.07
2018-08-18T14:12:27.403Z,1.90
2018-08-18T14:14:54.857Z,1.70
2018-08-18T14:17:22.470Z,1.90
2018-08-18T14:19:49.883Z,1.80
2018-08-18T14:22:17.369Z,1.53
2018-08-18T14:24:44.835Z,1.60
2018-08-18T14:27:12.294Z,1.77
2018-08-18T14:29:39.743Z,1.50
2018-08-18T14:32:07.204Z,1.47
2018-08-18T14:34:34.766Z,1.57
2018-08-18T14:37:02.207Z,1.67
2018-08-18T14:39:29.671Z,1.40
2018-08-18T14:41:58.280Z,1.60
2018-08-18T14:44:25.759Z,1.60
2018-08-18T14:46:53.315Z,1.43
2018-08-18T14:49:20.872Z,1.50
2018-08-18T14:51:48.335Z,1.43
2018-08-18T14:54:15.902Z,1.33
2018-08-18T14:56:43.251Z,1.63
2018-08-18T14:59:10.820Z,1.57
2018-08-18T15:01:38.273Z,1.37
2018-08-18T15:04:05.852Z,1.23
2018-08-18T15:06:33.304Z,1.30
2018-08-18T15:09:00.754Z,1.60
2018-08-18T15:11:28.226Z,1.30
2018-08-18T15:13:55.679Z,1.60
2018-08-18T15:16:23.155Z,1.70
2018-08-18T15:18:50.620Z,1.60
2018-08-18T15:21:18.180Z,1.43
2018-08-18T15:23:45.648Z,1.50
2018-08-18T15:26:13.119Z,1.10
2018-08-18T15:28:40.664Z,1.40
2018-08-18T15:31:08.197Z,1.40
2018-08-18T15:33:35.639Z,1.50
2018-08-18T15:36:03.863Z,1.40
2018-08-18T15:38:31.401Z,1.57
2018-08-18T15:40:58.908Z,1.30
2018-08-18T15:43:26.472Z,1.30
2018-08-18T15:45:53.937Z,1.73
2018-08-18T15:48:22.216Z,1.30
2018-08-18T15:50:49.775Z,1.43
2018-08-18T15:53:17.218Z,1.30
2018-08-18T15:55:44.709Z,1.80
2018-08-18T15:58:12.176Z,1.13
2018-08-18T16:00:39.623Z,1.53
2018-08-18T16:03:07.107Z,1.67
2018-08-18T16:05:35.328Z,1.10
2018-08-18T16:08:02.781Z,1.10
2018-08-18T16:10:30.243Z,1.17
2018-08-18T16:12:57.799Z,1.10
2018-08-18T16:15:25.315Z,1.10
2018-08-18T16:17:52.775Z,1.03
2018-08-18T16:20:20.236Z,1.00
2018-08-18T16:22:47.703Z,1.20
2018-08-18T16:25:15.163Z,1.13
2018-08-18T16:27:42.617Z,1.40
2018-08-18T16:30:10.070Z,1.97
2018-08-18T16:32:37.550Z,2.20
2018-08-18T16:35:05.011Z,1.80
2018-08-18T16:37:32.467Z,1.60
2018-08-18T16:39:59.943Z,1.87
2018-08-18T16:42:27.405Z,1.50
2018-08-18T16:44:54.961Z,3.70
2018-08-18T16:47:22.525Z,1.83
2018-08-18T16:49:49.980Z,1.63
2018-08-18T16:52:17.441Z,1.80
2018-08-18T16:54:44.899Z,1.53
2018-08-18T16:57:12.382Z,1.50
2018-08-18T16:59:39.831Z,1.33
2018-08-18T17:02:07.310Z,1.53
2018-08-18T17:04:34.771Z,1.20
2018-08-18T17:07:02.233Z,1.90
2018-08-18T17:09:29.783Z,1.57
2018-08-18T17:11:57.235Z,1.50
2018-08-18T17:14:24.774Z,1.30
2018-08-18T17:16:52.234Z,1.63
2018-08-18T17:19:19.688Z,1.70
2018-08-18T17:21:47.142Z,1.40
2018-08-18T17:24:15.376Z,1.50
2018-08-18T17:26:42.823Z,1.40
2018-08-18T17:29:10.308Z,1.23
2018-08-18T17:31:37.872Z,1.20
2018-08-18T17:34:05.319Z,1.30
2018-08-18T17:36:32.896Z,1.70
2018-08-18T17:39:00.462Z,1.40
2018-08-18T17:41:27.926Z,1.60
2018-08-18T17:43:55.380Z,1.60
2018-08-18T17:46:22.947Z,1.37
2018-08-18T17:48:50.422Z,1.83
2018-08-18T17:51:17.885Z,1.37
2018-08-18T17:53:45.347Z,1.17
2018-08-18T17:56:12.814Z,1.13
2018-08-18T17:58:41.087Z,1.93
2018-08-18T18:01:08.542Z,1.70
2018-08-18T18:03:36.098Z,1.20
2018-08-18T18:06:03.564Z,1.60
2018-08-18T18:08:31.131Z,1.57
2018-08-18T18:10:58.592Z,1.50
2018-08-18T18:13:26.046Z,1.37
2018-08-18T18:15:53.517Z,1.30
2018-08-18T18:18:20.978Z,1.80
2018-08-18T18:20:48.437Z,1.33
2018-08-18T18:23:15.893Z,1.30
2018-08-18T18:25:43.368Z,1.63
2018-08-18T18:28:10.823Z,1.43
2018-08-18T18:30:38.272Z,1.73
2018-08-18T18:33:05.732Z,1.30
2018-08-18T18:35:33.213Z,1.43
2018-08-18T18:38:00.675Z,1.73
2018-08-18T18:40:28.288Z,1.60
2018-08-18T18:42:55.737Z,1.77
2018-08-18T18:45:23.985Z,1.53
2018-08-18T18:47:51.451Z,1.67
2018-08-18T18:50:18.904Z,1.57
2018-08-18T18:52:46.367Z,1.93
2018-08-18T18:55:13.927Z,1.97
2018-08-18T18:57:41.397Z,1.90
2018-08-18T19:00:08.859Z,1.87
2018-08-18T19:02:36.321Z,1.83
2018-08-18T19:05:03.787Z,2.03
2018-08-18T19:07:31.241Z,2.00
2018-08-18T19:09:58.724Z,1.93
2018-08-18T19:12:26.214Z,1.90
2018-08-18T19:14:55.139Z,1.87
2018-08-18T19:17:22.608Z,2.03
2018-08-18T19:19:50.055Z,2.10
2018-08-18T19:22:17.512Z,1.97
2018-08-18T19:24:45.013Z,1.70
2018-08-18T19:27:12.579Z,1.90
2018-08-18T19:29:40.041Z,2.27
2018-08-18T19:32:07.597Z,2.47
2018-08-18T19:34:35.196Z,1.87
2018-08-18T19:37:02.619Z,1.90
2018-08-18T19:39:30.079Z,2.13
2018-08-18T19:41:57.539Z,1.70
2018-08-18T19:44:24.994Z,1.70
2018-08-18T19:46:52.457Z,1.70
2018-08-18T19:49:19.938Z,1.83
2018-08-18T19:51:47.491Z,1.90
2018-08-18T19:54:14.969Z,1.57
2018-08-18T19:56:42.415Z,2.10
2018-08-18T19:59:09.875Z,2.03
2018-08-18T20:01:37.323Z,2.23
2018-08-18T20:04:04.792Z,1.80
2018-08-18T20:06:32.271Z,2.00
2018-08-18T20:08:59.730Z,1.97
2018-08-18T20:11:27.193Z,2.23
2018-08-18T20:13:54.647Z,1.77
2018-08-18T20:16:22.107Z,2.20
2018-08-18T20:18:49.589Z,2.10
2018-08-18T20:21:17.047Z,1.77
2018-08-18T20:23:44.616Z,2.40
2018-08-18T20:26:12.081Z,2.70
2018-08-18T20:28:39.538Z,2.70
2018-08-18T20:31:07.009Z,2.60
2018-08-18T20:33:34.563Z,2.80
2018-08-18T20:36:02.023Z,3.23
2018-08-18T20:38:29.491Z,3.57
2018-08-18T20:40:57.045Z,3.70
2018-08-18T20:43:24.509Z,3.60
2018-08-18T20:45:51.963Z,3.70
2018-08-18T20:48:19.463Z,3.40
2018-08-18T20:50:46.904Z,3.80
2018-08-18T20:53:14.359Z,3.30
2018-08-18T20:55:41.819Z,3.20
2018-08-18T20:58:09.306Z,3.10
2018-08-18T21:00:37.518Z,3.40
2018-08-18T21:03:05.038Z,3.60
2018-08-18T21:05:32.500Z,3.13
2018-08-18T21:07:59.958Z,2.93
2018-08-18T21:10:27.511Z,4.13
2018-08-18T21:12:54.986Z,3.57
2018-08-18T21:15:22.444Z,3.37
2018-08-18T21:17:49.904Z,3.90
2018-08-18T21:20:17.360Z,3.70
2018-08-18T21:22:44.816Z,3.80
2018-08-18T21:25:12.275Z,3.53
2018-08-18T21:27:39.731Z,3.77
2018-08-18T21:30:07.198Z,2.97
2018-08-18T21:32:34.672Z,3.27
2018-08-18T21:35:02.134Z,3.47
2018-08-18T21:37:29.599Z,3.70
2018-08-18T21:39:57.068Z,3.17
2018-08-18T21:42:24.628Z,2.97
2018-08-18T21:44:52.079Z,3.13
2018-08-18T21:47:19.652Z,3.17
2018-08-18T21:49:47.206Z,3.60
2018-08-18T21:52:14.681Z,3.20
2018-08-18T21:54:42.240Z,3.40
2018-08-18T21:57:09.699Z,3.80
2018-08-18T21:59:37.175Z,3.10
2018-08-18T22:02:04.732Z,3.53
2018-08-18T22:04:32.199Z,3.30
2018-08-18T22:06:59.662Z,3.13
2018-08-18T22:09:27.120Z,3.73
2018-08-18T22:11:54.581Z,3.70
2018-08-18T22:14:22.144Z,4.93
2018-08-18T22:16:49.615Z,6.40
2018-08-18T22:19:17.178Z,6.83
2018-08-18T22:21:44.629Z,6.07
2018-08-18T22:24:12.088Z,5.60
2018-08-18T22:26:40.780Z,5.90
2018-08-18T22:29:08.361Z,6.80
2018-08-18T22:31:35.918Z,5.50
2018-08-18T22:34:03.475Z,5.57
2018-08-18T22:36:30.933Z,4.73
2018-08-18T22:38:58.399Z,3.83
2018-08-18T22:41:25.862Z,4.30
2018-08-18T22:43:53.323Z,4.40
2018-08-18T22:46:20.884Z,4.47
2018-08-18T22:48:48.496Z,3.97
2018-08-18T22:51:16.029Z,3.83
2018-08-18T22:53:43.500Z,3.77
2018-08-18T22:56:11.723Z,3.70
2018-08-18T22:58:39.172Z,4.03
2018-08-18T23:01:06.627Z,3.30
2018-08-18T23:03:34.856Z,4.37
2018-08-18T23:06:02.437Z,3.93
2018-08-18T23:08:29.988Z,3.23
2018-08-18T23:10:57.457Z,3.30
2018-08-18T23:13:24.978Z,3.23
2018-08-18T23:15:52.544Z,3.87
2018-08-18T23:18:20.044Z,3.07
2018-08-18T23:20:47.607Z,3.90
2018-08-18T23:23:15.070Z,3.40
2018-08-18T23:25:42.636Z,3.30
2018-08-18T23:28:10.092Z,3.50
2018-08-18T23:30:37.547Z,3.33
2018-08-18T23:33:05.025Z,3.10
2018-08-18T23:35:32.475Z,3.07
2018-08-18T23:37:59.950Z,2.90
2018-08-18T23:40:27.516Z,3.10
2018-08-18T23:42:54.994Z,3.10
2018-08-18T23:45:23.211Z,3.20
2018-08-18T23:47:50.671Z,3.87
2018-08-18T23:50:18.137Z,3.50
2018-08-18T23:52:45.590Z,3.10
2018-08-18T23:55:13.050Z,3.10
2018-08-18T23:57:40.507Z,2.53
